Bastille Street — A8YZ6 — position and weather

sailwx.info

Track history (hours):
 
Tides and Currents Weather Stations Pressure Air Temp Water Temp Dewpoint Dewpoint Depression Visibility Wind Speed Wind Dir Waves Ship Positions

Bastille Street

Last reported at 2016-Nov-25 08:20 UTC. Time now 2016-Dec-04 08:14 UTC.
Position N 29°05' W 094°17'.
Warning: this ship's position is 8 days out of date.

Length 180 m; draft 10.4 m.

MMSI: 636015161.

Date/timePositionNaut miles runAvg speedWind from/ knotsBaromVisibWave heightAir tempDewpointWater temp
2016-Nov-25 08:20N 29°05' W 094°17'1112.7
2016-Nov-25 07:26N 29°10' W 094°28'1211.8
2016-Nov-25 06:24N 29°18' W 094°38'911.1
2016-Nov-25 05:33N 29°21' W 094°48'5 4.4
2016-Nov-25 04:32N 29°22' W 094°53'0 0.0
2016-Nov-23 21:05N 29°22' W 094°53'0 0.0
2016-Nov-23 20:31N 29°22' W 094°53'5 5.3
2016-Nov-23 19:32N 29°21' W 094°48'1211.0
2016-Nov-23 18:25N 29°17' W 094°34'  
2016-Nov-18 07:20N 25°25' W 079°48'1810.0
2016-Nov-18 05:33N 25°41' W 079°42'1010.1
2016-Nov-18 04:33N 25°51' W 079°39'3110.3
2016-Nov-18 01:33N 26°21' W 079°30'  
Track history (hours):
 
Tides and Currents Weather Stations Pressure Air Temp Water Temp Dewpoint Dewpoint Depression Visibility Wind Speed Wind Dir Waves Ship Positions

Bastille Street

Last reported at 2016-Nov-25 08:20 UTC. Time now 2016-Dec-04 08:14 UTC.
Position N 29°05' W 094°17'.
Warning: this ship's position is 8 days out of date.

Length 180 m; draft 10.4 m.

MMSI: 636015161.

Date/timePositionNaut miles runAvg speedWind from/ knotsBaromVisibWave heightAir tempDewpointWater temp
2016-Nov-25 08:20N 29°05' W 094°17'1112.7
2016-Nov-25 07:26N 29°10' W 094°28'1211.8
2016-Nov-25 06:24N 29°18' W 094°38'911.1
2016-Nov-25 05:33N 29°21' W 094°48'5 4.4
2016-Nov-25 04:32N 29°22' W 094°53'0 0.0
2016-Nov-23 21:05N 29°22' W 094°53'0 0.0
2016-Nov-23 20:31N 29°22' W 094°53'5 5.3
2016-Nov-23 19:32N 29°21' W 094°48'1211.0
2016-Nov-23 18:25N 29°17' W 094°34'  
2016-Nov-18 07:20N 25°25' W 079°48'1810.0
2016-Nov-18 05:33N 25°41' W 079°42'1010.1
2016-Nov-18 04:33N 25°51' W 079°39'3110.3
2016-Nov-18 01:33N 26°21' W 079°30'  

Dump ship's entire track history